createdAt,value
2018-11-28T00:00:12.541Z,90.80
2018-11-28T00:02:40.934Z,90.90
2018-11-28T00:05:10.937Z,90.80
2018-11-28T00:07:39.642Z,90.80
2018-11-28T00:10:12.076Z,90.90
2018-11-28T00:12:41.503Z,90.90
2018-11-28T00:15:11.260Z,90.90
2018-11-28T00:17:39.704Z,90.90
2018-11-28T00:20:18.540Z,90.90
2018-11-28T00:22:47.091Z,90.90
2018-11-28T00:25:16.111Z,90.90
2018-11-28T00:27:44.899Z,90.90
2018-11-28T00:30:22.297Z,91.00
2018-11-28T00:32:51.143Z,91.00
2018-11-28T00:35:20.696Z,91.00
2018-11-28T00:37:49.422Z,91.00
2018-11-28T00:40:19.692Z,91.00
2018-11-28T00:42:48.131Z,91.00
2018-11-28T00:45:18.984Z,90.90
2018-11-28T00:47:47.476Z,90.90
2018-11-28T00:50:19.050Z,90.90
2018-11-28T00:52:47.449Z,91.00
2018-11-28T00:55:17.036Z,91.00
2018-11-28T00:57:46.045Z,91.10
2018-11-28T01:00:18.996Z,91.00
2018-11-28T01:02:48.288Z,91.00
2018-11-28T01:05:17.048Z,91.10
2018-11-28T01:07:46.588Z,91.00
2018-11-28T01:10:16.244Z,91.00
2018-11-28T01:12:45.257Z,90.90
2018-11-28T01:15:15.230Z,91.00
2018-11-28T01:17:44.420Z,91.00
2018-11-28T01:20:14.449Z,91.00
2018-11-28T01:22:42.862Z,90.90
2018-11-28T01:25:12.646Z,91.00
2018-11-28T01:27:41.592Z,91.00
2018-11-28T01:30:15.987Z,91.00
2018-11-28T01:32:44.946Z,91.00
2018-11-28T01:35:15.439Z,90.90
2018-11-28T01:37:44.225Z,90.90
2018-11-28T01:40:14.986Z,90.90
2018-11-28T01:42:43.811Z,90.90
2018-11-28T01:45:15.647Z,90.90
2018-11-28T01:47:44.319Z,90.90
2018-11-28T01:50:14.027Z,90.90
2018-11-28T01:52:42.405Z,90.90
2018-11-28T01:55:12.920Z,90.90
2018-11-28T01:57:41.686Z,90.90
2018-11-28T02:00:15.729Z,90.90
2018-11-28T02:02:44.453Z,90.90
2018-11-28T02:05:13.103Z,90.90
2018-11-28T02:07:41.865Z,90.90
2018-11-28T02:10:14.325Z,90.90
2018-11-28T02:12:43.621Z,90.80
2018-11-28T02:15:20.606Z,90.80
2018-11-28T02:17:48.987Z,90.80
2018-11-28T02:20:18.239Z,90.80
2018-11-28T02:22:47.189Z,90.90
2018-11-28T02:25:18.041Z,90.90
2018-11-28T02:27:47.767Z,90.90
2018-11-28T02:30:18.996Z,90.90
2018-11-28T02:32:48.446Z,90.90
2018-11-28T02:35:17.915Z,91.00
2018-11-28T02:37:46.689Z,91.00
2018-11-28T02:40:16.178Z,90.90
2018-11-28T02:42:44.987Z,91.00
2018-11-28T02:45:16.404Z,91.10
2018-11-28T02:47:44.836Z,91.00
2018-11-28T02:50:13.207Z,91.00
2018-11-28T02:52:41.588Z,91.00
2018-11-28T02:55:13.098Z,91.00
2018-11-28T02:57:42.701Z,91.00
2018-11-28T03:00:13.669Z,91.00
2018-11-28T03:02:42.383Z,91.00
2018-11-28T03:05:12.539Z,91.10
2018-11-28T03:07:41.049Z,91.10
2018-11-28T03:10:18.120Z,91.10
2018-11-28T03:12:46.519Z,91.10
2018-11-28T03:15:28.064Z,91.10
2018-11-28T03:17:56.570Z,91.10
2018-11-28T03:20:24.974Z,91.00
2018-11-28T03:22:53.335Z,91.00
2018-11-28T03:25:22.611Z,90.90
2018-11-28T03:27:51.253Z,90.80
2018-11-28T03:30:19.662Z,90.90
2018-11-28T03:32:48.205Z,90.90
2018-11-28T03:35:16.851Z,90.90
2018-11-28T03:37:45.899Z,90.80
2018-11-28T03:40:14.649Z,90.60
2018-11-28T03:42:43.037Z,90.80
2018-11-28T03:45:12.611Z,90.60
2018-11-28T03:47:41.651Z,90.40
2018-11-28T03:50:11.467Z,90.40
2018-11-28T03:52:40.444Z,90.20
2018-11-28T03:55:10.581Z,90.00
2018-11-28T03:57:39.119Z,90.10
2018-11-28T04:00:11.549Z,90.10
2018-11-28T04:02:39.971Z,89.80
2018-11-28T04:05:08.796Z,89.50
2018-11-28T04:07:37.176Z,89.30
2018-11-28T04:10:08.376Z,89.60
2018-11-28T04:12:36.990Z,89.10
2018-11-28T04:15:13.808Z,89.10
2018-11-28T04:17:42.530Z,89.00
2018-11-28T04:20:13.616Z,88.80
2018-11-28T04:22:41.992Z,88.10
2018-11-28T04:25:11.300Z,88.80
2018-11-28T04:27:39.834Z,88.70
2018-11-28T04:30:11.419Z,87.80
2018-11-28T04:32:39.793Z,88.00
2018-11-28T04:35:09.642Z,87.90
2018-11-28T04:37:38.023Z,87.90
2018-11-28T04:40:11.222Z,88.00
2018-11-28T04:42:39.945Z,88.50
2018-11-28T04:45:10.986Z,87.80
2018-11-28T04:47:39.419Z,87.70
2018-11-28T04:50:09.829Z,87.30
2018-11-28T04:52:38.682Z,87.40
2018-11-28T04:55:12.209Z,87.30
2018-11-28T04:57:41.186Z,87.20
2018-11-28T05:00:17.999Z,87.30
2018-11-28T05:02:46.831Z,87.00
2018-11-28T05:05:22.941Z,86.70
2018-11-28T05:07:52.527Z,86.70
2018-11-28T05:10:25.038Z,86.50
2018-11-28T05:12:54.097Z,86.80
2018-11-28T05:15:25.088Z,87.00
2018-11-28T05:17:54.245Z,86.50
2018-11-28T05:20:27.745Z,86.60
2018-11-28T05:22:56.125Z,86.70
2018-11-28T05:25:25.927Z,86.70
2018-11-28T05:27:55.501Z,86.90
2018-11-28T05:30:25.441Z,87.10
2018-11-28T05:32:53.872Z,87.20
2018-11-28T05:35:29.739Z,87.00
2018-11-28T05:37:58.283Z,86.90
2018-11-28T05:40:27.734Z,86.70
2018-11-28T05:42:56.678Z,86.60
2018-11-28T05:45:25.179Z,86.40
2018-11-28T05:47:53.575Z,86.20
2018-11-28T05:50:22.531Z,86.20
2018-11-28T05:52:51.476Z,86.00
2018-11-28T05:55:21.336Z,86.20
2018-11-28T05:57:49.815Z,86.20
2018-11-28T06:00:27.847Z,86.00
2018-11-28T06:02:56.250Z,86.20
2018-11-28T06:05:24.679Z,86.60
2018-11-28T06:07:53.162Z,86.30
2018-11-28T06:10:21.899Z,86.40
2018-11-28T06:12:50.420Z,86.20
2018-11-28T06:15:19.024Z,86.20
2018-11-28T06:17:47.456Z,86.30
2018-11-28T06:20:16.272Z,85.50
2018-11-28T06:22:45.414Z,85.50
2018-11-28T06:25:16.203Z,85.70
2018-11-28T06:27:44.335Z,86.00
2018-11-28T06:30:14.214Z,86.10
2018-11-28T06:32:42.652Z,86.70
2018-11-28T06:35:11.572Z,86.70
2018-11-28T06:37:40.471Z,86.50
2018-11-28T06:40:13.714Z,86.70
2018-11-28T06:42:42.353Z,86.40
2018-11-28T06:45:20.236Z,86.00
2018-11-28T06:47:49.089Z,86.20
2018-11-28T06:50:18.597Z,86.50
2018-11-28T06:52:48.715Z,86.40
2018-11-28T06:55:18.475Z,86.40
2018-11-28T06:57:46.869Z,86.30
2018-11-28T07:00:21.491Z,86.00
2018-11-28T07:02:51.985Z,86.80
2018-11-28T07:05:21.090Z,86.50
2018-11-28T07:07:49.776Z,85.70
2018-11-28T07:10:19.611Z,85.30
2018-11-28T07:12:48.077Z,84.70
2018-11-28T07:15:17.538Z,84.70
2018-11-28T07:17:46.670Z,85.90
2018-11-28T07:20:16.311Z,85.00
2018-11-28T07:22:45.725Z,84.20
2018-11-28T07:25:16.504Z,83.90
2018-11-28T07:27:46.457Z,83.90
2018-11-28T07:30:18.771Z,84.30
2018-11-28T07:32:47.920Z,84.70
2018-11-28T07:35:16.343Z,84.50
2018-11-28T07:37:44.873Z,84.50
2018-11-28T07:40:16.335Z,84.50
2018-11-28T07:42:53.401Z,84.40
2018-11-28T07:45:21.836Z,84.80
2018-11-28T07:47:50.562Z,83.90
2018-11-28T07:50:19.015Z,84.00
2018-11-28T07:52:47.483Z,83.90
2018-11-28T07:55:15.909Z,82.40
2018-11-28T07:57:44.383Z,82.80
2018-11-28T08:00:14.827Z,83.00
2018-11-28T08:02:43.857Z,83.00
2018-11-28T08:05:12.683Z,82.50
2018-11-28T08:07:41.917Z,82.70
2018-11-28T08:10:16.354Z,81.90
2018-11-28T08:12:44.738Z,81.60
2018-11-28T08:15:13.243Z,81.80
2018-11-28T08:17:42.052Z,81.80
2018-11-28T08:20:10.518Z,81.80
2018-11-28T08:22:39.665Z,81.60
2018-11-28T08:25:09.828Z,81.70
2018-11-28T08:27:38.260Z,81.00
2018-11-28T08:30:12.889Z,81.00
2018-11-28T08:32:41.718Z,81.20
2018-11-28T08:35:10.843Z,81.70
2018-11-28T08:37:39.210Z,81.70
2018-11-28T08:40:12.896Z,82.00
2018-11-28T08:42:41.495Z,81.90
2018-11-28T08:45:15.621Z,82.10
2018-11-28T08:47:45.090Z,82.00
2018-11-28T08:50:46.408Z,82.10
2018-11-28T08:53:14.924Z,82.20
2018-11-28T08:55:43.433Z,82.30
2018-11-28T08:58:11.817Z,81.90
2018-11-28T09:00:40.382Z,81.90
2018-11-28T09:03:08.852Z,81.90
2018-11-28T09:05:37.266Z,81.80
2018-11-28T09:08:05.644Z,81.60
2018-11-28T09:10:34.096Z,81.90
2018-11-28T09:13:04.314Z,82.30
2018-11-28T09:15:31.670Z,81.50
2018-11-28T09:18:00.050Z,81.40
2018-11-28T09:20:28.426Z,81.20
2018-11-28T09:22:56.946Z,81.30
2018-11-28T09:25:25.396Z,81.40
2018-11-28T09:27:57.996Z,81.40
2018-11-28T09:30:26.452Z,81.40
2018-11-28T09:32:54.825Z,81.20
2018-11-28T09:35:23.595Z,80.60
2018-11-28T09:37:52.063Z,80.70
2018-11-28T09:40:24.501Z,80.60
2018-11-28T09:42:55.042Z,80.70
2018-11-28T09:45:23.635Z,80.70
2018-11-28T09:47:52.065Z,80.40
2018-11-28T09:50:21.540Z,80.10
2018-11-28T09:52:50.204Z,79.90
2018-11-28T09:55:20.155Z,79.90
2018-11-28T09:57:48.771Z,79.70
2018-11-28T10:00:18.057Z,79.40
2018-11-28T10:02:46.812Z,79.90
2018-11-28T10:05:26.766Z,79.70
2018-11-28T10:07:55.280Z,79.50
2018-11-28T10:10:23.685Z,78.90
2018-11-28T10:12:52.600Z,78.80
2018-11-28T10:15:22.348Z,79.00
2018-11-28T10:17:50.921Z,79.10
2018-11-28T10:20:20.053Z,79.00
2018-11-28T10:22:49.901Z,79.00
2018-11-28T10:25:22.343Z,79.10
2018-11-28T10:27:56.496Z,78.90
2018-11-28T10:30:27.134Z,78.90
2018-11-28T10:32:55.956Z,78.90
2018-11-28T10:35:24.394Z,78.80
2018-11-28T10:37:53.186Z,78.60
2018-11-28T10:40:22.888Z,78.50
2018-11-28T10:42:53.469Z,78.40
2018-11-28T10:45:23.972Z,78.50
2018-11-28T10:47:52.502Z,78.60
2018-11-28T10:50:20.919Z,78.70
2018-11-28T10:52:49.673Z,78.80
2018-11-28T10:55:23.431Z,78.80
2018-11-28T10:57:52.085Z,78.50
2018-11-28T11:00:27.675Z,78.60
2018-11-28T11:03:01.433Z,78.40
2018-11-28T11:05:35.363Z,78.30
2018-11-28T11:08:09.051Z,78.00
2018-11-28T11:10:43.551Z,78.10
2018-11-28T11:13:16.818Z,77.30
2018-11-28T11:15:50.774Z,77.30
2018-11-28T11:18:19.147Z,77.30
2018-11-28T11:20:47.547Z,77.20
2018-11-28T11:23:15.995Z,77.10
2018-11-28T11:25:44.717Z,77.40
2018-11-28T11:28:13.163Z,77.20
2018-11-28T11:30:41.715Z,77.00
2018-11-28T11:33:10.607Z,76.90
2018-11-28T11:35:39.391Z,76.30
2018-11-28T11:38:08.147Z,76.70
2018-11-28T11:40:36.955Z,76.70
2018-11-28T11:43:06.185Z,76.20
2018-11-28T11:45:34.630Z,76.00
2018-11-28T11:48:03.087Z,76.10
2018-11-28T11:50:32.275Z,76.50
2018-11-28T11:53:00.657Z,76.30
2018-11-28T11:55:29.383Z,76.20
2018-11-28T11:57:58.479Z,76.00
2018-11-28T12:00:27.923Z,75.70
2018-11-28T12:03:03.592Z,75.90
2018-11-28T12:05:31.952Z,75.80
2018-11-28T12:08:00.320Z,76.10
2018-11-28T12:10:29.076Z,75.80
2018-11-28T12:12:57.450Z,75.60
2018-11-28T12:15:25.845Z,75.50
2018-11-28T12:17:54.335Z,75.60
2018-11-28T12:20:26.400Z,75.30
2018-11-28T12:22:54.803Z,74.90
2018-11-28T12:25:23.760Z,75.10
2018-11-28T12:27:52.266Z,75.20
2018-11-28T12:30:20.644Z,75.10
2018-11-28T12:32:49.054Z,74.90
2018-11-28T12:35:18.399Z,75.10
2018-11-28T12:37:47.216Z,75.30
2018-11-28T12:40:16.611Z,75.30
2018-11-28T12:42:49.675Z,75.20
2018-11-28T12:45:19.044Z,75.00
2018-11-28T12:47:48.042Z,74.70
2018-11-28T12:50:21.219Z,74.60
2018-11-28T12:52:50.047Z,74.50
2018-11-28T12:55:19.674Z,74.80
2018-11-28T12:57:48.752Z,74.70
2018-11-28T13:00:18.980Z,74.60
2018-11-28T13:02:47.484Z,74.50
2018-11-28T13:05:18.090Z,74.60
2018-11-28T13:07:46.530Z,75.10
2018-11-28T13:10:31.756Z,74.80
2018-11-28T13:13:00.159Z,74.80
2018-11-28T13:15:28.953Z,74.80
2018-11-28T13:17:57.346Z,74.60
2018-11-28T13:20:25.836Z,74.60
2018-11-28T13:22:55.459Z,74.50
2018-11-28T13:25:25.777Z,74.30
2018-11-28T13:27:54.350Z,74.10
2018-11-28T13:30:25.610Z,74.40
2018-11-28T13:32:55.309Z,74.40
2018-11-28T13:35:25.596Z,74.00
2018-11-28T13:37:55.372Z,73.00
2018-11-28T13:40:24.091Z,72.60
2018-11-28T13:42:52.723Z,70.30
2018-11-28T13:45:22.564Z,71.40
2018-11-28T13:47:52.077Z,71.80
2018-11-28T13:50:21.019Z,72.10
2018-11-28T13:52:49.986Z,72.00
2018-11-28T13:55:38.512Z,71.80
2018-11-28T13:57:58.389Z,71.90
2018-11-28T14:00:26.861Z,71.80
2018-11-28T14:02:56.534Z,72.20
2018-11-28T14:05:24.921Z,72.50
2018-11-28T14:07:53.400Z,72.30
2018-11-28T14:10:22.101Z,72.10
2018-11-28T14:12:50.898Z,72.30
2018-11-28T14:15:22.128Z,72.10
2018-11-28T14:17:55.024Z,72.50
2018-11-28T14:20:23.589Z,72.70
2018-11-28T14:22:52.243Z,73.00
2018-11-28T14:25:20.625Z,73.10
2018-11-28T14:27:49.026Z,73.30
2018-11-28T14:30:19.609Z,73.60
2018-11-28T14:32:48.249Z,73.80
2018-11-28T14:35:16.774Z,74.00
2018-11-28T14:37:45.555Z,74.10
2018-11-28T14:40:15.418Z,74.10
2018-11-28T14:42:44.906Z,74.30
2018-11-28T14:45:15.429Z,74.50
2018-11-28T14:47:44.328Z,74.60
2018-11-28T14:50:18.472Z,74.70
2018-11-28T14:52:47.120Z,74.80
2018-11-28T14:55:18.873Z,75.10
2018-11-28T14:57:47.432Z,75.30
2018-11-28T15:00:20.722Z,75.40
2018-11-28T15:02:52.878Z,75.60
2018-11-28T15:05:32.830Z,76.00
2018-11-28T15:08:06.866Z,76.10
2018-11-28T15:10:42.793Z,76.10
2018-11-28T15:13:11.275Z,76.30
2018-11-28T15:15:39.692Z,76.50
2018-11-28T15:18:08.096Z,76.50
2018-11-28T15:20:36.719Z,76.70
2018-11-28T15:23:05.621Z,76.80
2018-11-28T15:25:34.103Z,76.80
2018-11-28T15:28:02.532Z,76.80
2018-11-28T15:30:31.072Z,77.10
2018-11-28T15:32:59.452Z,77.30
2018-11-28T15:35:28.044Z,77.50
2018-11-28T15:37:56.433Z,77.90
2018-11-28T15:40:24.855Z,78.00
2018-11-28T15:42:53.283Z,78.30
2018-11-28T15:45:21.709Z,78.50
2018-11-28T15:47:50.213Z,78.80
2018-11-28T15:50:18.798Z,79.20
2018-11-28T15:52:47.273Z,79.70
2018-11-28T15:55:15.747Z,79.90
2018-11-28T15:57:44.137Z,80.20
2018-11-28T16:00:17.361Z,80.50
2018-11-28T16:02:45.899Z,80.70
2018-11-28T16:05:14.349Z,81.00
2018-11-28T16:07:42.935Z,81.10
2018-11-28T16:10:17.995Z,81.30
2018-11-28T16:12:47.775Z,81.60
2018-11-28T16:15:19.565Z,81.90
2018-11-28T16:17:47.989Z,82.00
2018-11-28T16:20:16.919Z,82.20
2018-11-28T16:22:45.764Z,82.40
2018-11-28T16:25:14.247Z,82.50
2018-11-28T16:27:42.722Z,82.50
2018-11-28T16:30:14.392Z,82.70
2018-11-28T16:32:44.895Z,82.90
2018-11-28T16:35:14.438Z,82.90
2018-11-28T16:37:42.913Z,82.90
2018-11-28T16:40:13.674Z,83.00
2018-11-28T16:42:42.143Z,83.10
2018-11-28T16:45:25.438Z,83.40
2018-11-28T16:47:53.893Z,83.20
2018-11-28T16:50:22.311Z,83.40
2018-11-28T16:52:50.730Z,83.70
2018-11-28T16:55:19.235Z,83.60
2018-11-28T16:57:49.178Z,83.70
2018-11-28T17:00:20.132Z,83.90
2018-11-28T17:02:48.636Z,84.00
2018-11-28T17:05:19.067Z,84.00
2018-11-28T17:07:47.894Z,84.00
2018-11-28T17:10:26.248Z,83.90
2018-11-28T17:12:55.404Z,83.70
2018-11-28T17:15:23.866Z,83.70
2018-11-28T17:17:52.638Z,83.50
2018-11-28T17:20:22.344Z,83.20
2018-11-28T17:22:52.254Z,83.00
2018-11-28T17:25:24.085Z,82.90
2018-11-28T17:27:53.160Z,82.50
2018-11-28T17:30:23.028Z,82.50
2018-11-28T17:32:51.680Z,82.40
2018-11-28T17:35:20.191Z,82.40
2018-11-28T17:37:48.577Z,82.30
2018-11-28T17:40:19.482Z,82.50
2018-11-28T17:42:49.320Z,82.20
2018-11-28T17:45:18.444Z,82.20
2018-11-28T17:47:46.976Z,82.20
2018-11-28T17:50:18.557Z,82.10
2018-11-28T17:53:01.375Z,82.10
2018-11-28T17:55:35.828Z,82.10
2018-11-28T17:58:04.776Z,82.00
2018-11-28T18:00:33.369Z,82.00
2018-11-28T18:03:02.016Z,82.00
2018-11-28T18:05:30.716Z,82.00
2018-11-28T18:07:59.105Z,81.90
2018-11-28T18:10:27.572Z,81.90
2018-11-28T18:13:17.527Z,81.80
2018-11-28T18:15:48.457Z,81.80
2018-11-28T18:18:20.061Z,81.70
2018-11-28T18:20:50.359Z,81.60
2018-11-28T18:23:17.103Z,81.70
2018-11-28T18:25:46.270Z,81.80
2018-11-28T18:28:14.773Z,81.70
2018-11-28T18:30:43.585Z,81.70
2018-11-28T18:33:13.432Z,81.80
2018-11-28T18:35:41.894Z,81.70
2018-11-28T18:38:10.429Z,81.80
2018-11-28T18:40:39.285Z,81.80
2018-11-28T18:43:08.564Z,81.90
2018-11-28T18:45:38.800Z,81.90
2018-11-28T18:48:07.330Z,82.00
2018-11-28T18:50:36.109Z,81.90
2018-11-28T18:53:04.510Z,81.90
2018-11-28T18:55:32.939Z,81.80
2018-11-28T18:58:01.768Z,81.90
2018-11-28T19:00:30.382Z,81.70
2018-11-28T19:02:58.850Z,81.50
2018-11-28T19:05:27.443Z,81.50
2018-11-28T19:07:55.861Z,81.50
2018-11-28T19:10:26.539Z,81.50
2018-11-28T19:12:54.072Z,81.70
2018-11-28T19:15:25.631Z,81.70
2018-11-28T19:17:54.815Z,81.80
2018-11-28T19:20:24.157Z,81.90
2018-11-28T19:22:53.567Z,81.80
2018-11-28T19:25:23.830Z,81.90
2018-11-28T19:27:52.411Z,81.90
2018-11-28T19:30:31.085Z,81.90
2018-11-28T19:32:57.014Z,82.00
2018-11-28T19:35:25.430Z,82.00
2018-11-28T19:37:53.875Z,82.00
2018-11-28T19:40:25.309Z,82.00
2018-11-28T19:42:53.803Z,82.00
2018-11-28T19:45:22.873Z,82.10
2018-11-28T19:47:51.226Z,82.20
2018-11-28T19:50:22.457Z,82.20
2018-11-28T19:52:50.913Z,82.30
2018-11-28T19:55:19.691Z,82.30
2018-11-28T19:57:48.127Z,82.40
2018-11-28T20:00:17.925Z,83.20
2018-11-28T20:02:46.857Z,82.50
2018-11-28T20:05:15.351Z,82.50
2018-11-28T20:07:46.269Z,82.30
2018-11-28T20:10:16.463Z,82.40
2018-11-28T20:12:45.026Z,82.40
2018-11-28T20:15:15.790Z,82.50
2018-11-28T20:17:44.229Z,82.60
2018-11-28T20:20:13.785Z,82.70
2018-11-28T20:22:42.369Z,82.70
2018-11-28T20:25:13.949Z,82.80
2018-11-28T20:27:43.108Z,82.80
2018-11-28T20:30:23.968Z,82.80
2018-11-28T20:32:52.408Z,82.80
2018-11-28T20:35:20.808Z,83.00
2018-11-28T20:37:49.255Z,83.00
2018-11-28T20:40:18.414Z,83.00
2018-11-28T20:42:48.571Z,83.00
2018-11-28T20:45:17.432Z,83.00
2018-11-28T20:47:45.830Z,83.00
2018-11-28T20:50:17.178Z,83.10
2018-11-28T20:52:54.875Z,83.00
2018-11-28T20:55:19.370Z,83.00
2018-11-28T20:57:48.123Z,82.80
2018-11-28T21:00:17.879Z,83.00
2018-11-28T21:02:46.303Z,83.00
2018-11-28T21:05:14.803Z,83.00
2018-11-28T21:07:43.226Z,82.90
2018-11-28T21:10:19.835Z,82.90
2018-11-28T21:12:48.397Z,83.00
2018-11-28T21:15:17.166Z,83.10
2018-11-28T21:17:46.377Z,83.60
2018-11-28T21:20:16.382Z,83.10
2018-11-28T21:22:49.665Z,83.10
2018-11-28T21:25:18.198Z,83.10
2018-11-28T21:27:47.017Z,83.10
2018-11-28T21:30:16.523Z,83.10
2018-11-28T21:32:45.381Z,83.00
2018-11-28T21:35:15.154Z,83.20
2018-11-28T21:37:43.571Z,83.30
2018-11-28T21:40:12.606Z,83.10
2018-11-28T21:42:41.088Z,83.00
2018-11-28T21:45:13.687Z,83.10
2018-11-28T21:47:42.181Z,83.10
2018-11-28T21:50:16.925Z,82.90
2018-11-28T21:52:45.393Z,82.60
2018-11-28T21:55:18.886Z,82.60
2018-11-28T21:57:47.765Z,82.80
2018-11-28T22:00:18.281Z,82.60
2018-11-28T22:02:46.663Z,82.60
2018-11-28T22:05:15.813Z,82.50
2018-11-28T22:07:44.445Z,82.20
2018-11-28T22:10:15.460Z,82.30
2018-11-28T22:12:44.268Z,82.40
2018-11-28T22:15:13.747Z,82.40
2018-11-28T22:17:43.899Z,82.40
2018-11-28T22:20:13.507Z,82.40
2018-11-28T22:22:42.157Z,82.50
2018-11-28T22:25:12.837Z,82.40
2018-11-28T22:27:41.638Z,82.20
2018-11-28T22:30:17.841Z,82.10
2018-11-28T22:32:46.290Z,82.20
2018-11-28T22:35:14.804Z,82.30
2018-11-28T22:37:43.318Z,82.50
2018-11-28T22:40:13.958Z,82.70
2018-11-28T22:42:42.524Z,83.00
2018-11-28T22:45:19.166Z,83.00
2018-11-28T22:47:47.783Z,83.00
2018-11-28T22:50:16.253Z,83.10
2018-11-28T22:52:44.672Z,83.10
2018-11-28T22:55:15.875Z,83.20
2018-11-28T22:57:45.118Z,83.30
2018-11-28T23:00:16.864Z,83.50
2018-11-28T23:02:55.593Z,83.60
2018-11-28T23:05:26.510Z,83.60
2018-11-28T23:07:55.895Z,83.50
2018-11-28T23:10:24.701Z,83.80
2018-11-28T23:12:53.110Z,84.00
2018-11-28T23:15:22.021Z,84.00
2018-11-28T23:17:55.023Z,84.10
2018-11-28T23:20:19.243Z,84.00
2018-11-28T23:22:47.831Z,84.00
2018-11-28T23:25:16.295Z,83.90
2018-11-28T23:27:44.769Z,83.80
2018-11-28T23:30:14.413Z,84.00
2018-11-28T23:32:42.866Z,83.90
2018-11-28T23:35:12.114Z,83.70
2018-11-28T23:37:42.593Z,83.60
2018-11-28T23:40:14.523Z,83.50
2018-11-28T23:42:42.959Z,83.30
2018-11-28T23:45:12.541Z,83.30
2018-11-28T23:47:42.077Z,83.30
2018-11-28T23:50:13.399Z,83.40
2018-11-28T23:52:42.023Z,83.10
2018-11-28T23:55:15.126Z,83.10
2018-11-28T23:57:43.737Z,83.10
